WMSA

Subang/Sultan Abdul Aziz Shah Airport

Airport
ICAO code
WMSA
IATA Code
SZB
Summary
ICAO Region
APAC
ICAO Territory
Location

Subang, Selangor

Serving
Subang
Elevation
90 ft
Coordinates
3° 7' 50" N , 101° 33' 2" E
KCC
Metar
Observation
WMSA 060400Z 16007KT 120V210 9999 FEW018 31/23 Q1010
Station
Subang/Sultan Abdul Aziz Shah Airport
Date/Time
2022-10-06 04:00:00
Wind direction
160°
Wind speed
07 kts
Lowest cloud amount
few clouds
Temperature
31°C
Dew point
23°C
Humidity
62%
QNH
1010 hPa
Weather condition
n/a

Sultan Abdul Aziz Shah Airport (formerly Subang International Airport), often called Subang Airport and known as Skypark Subang, is an airport located in Subang, Malaysia, and primarily serves general aviation and some turboprop domestic flights. It serves Klang Valley, West Malaysia.

Climatology

Tropical Rainforest climate (Köppen climate classification Af) - almost no distinct seasons, average daily temperature around 27°C throughout the year. Extensive cloud cover and heavy rainfall prevent temperatures from rising much over 33°C. The diurnal temperature change is between 2°C and 5°C which is greater than the annual temperature range of 2°C. Rainfall is heavy and is usually convectional and in the afternoon.

Airport map

Aerial View

SKYbrary Partners:

Safety knowledge contributed by: